createdAt,value
2022-09-11T00:02:34.502Z,15.20
2022-09-11T00:05:23.281Z,15.20
2022-09-11T00:08:12.620Z,15.30
2022-09-11T00:11:06.061Z,15.20
2022-09-11T00:13:54.253Z,15.30
2022-09-11T00:16:44.978Z,15.20
2022-09-11T00:19:32.174Z,15.20
2022-09-11T00:22:20.533Z,15.20
2022-09-11T00:25:07.933Z,15.20
2022-09-11T00:27:56.078Z,15.20
2022-09-11T00:30:43.448Z,15.20
2022-09-11T00:33:31.096Z,15.20
2022-09-11T00:36:20.027Z,15.10
2022-09-11T00:39:08.820Z,15.10
2022-09-11T00:41:56.448Z,15.10
2022-09-11T00:45:01.558Z,15.10
2022-09-11T00:47:50.176Z,15.10
2022-09-11T00:50:37.258Z,15.10
2022-09-11T00:53:28.056Z,15.10
2022-09-11T00:56:16.881Z,15.10
2022-09-11T00:59:05.562Z,15.10
2022-09-11T01:01:52.657Z,15.10
2022-09-11T01:04:40.201Z,15.10
2022-09-11T01:07:29.692Z,15.10
2022-09-11T01:10:16.673Z,15.10
2022-09-11T01:13:14.464Z,15.10
2022-09-11T01:16:10.760Z,15.10
2022-09-11T01:19:08.966Z,15.10
2022-09-11T01:22:12.325Z,15.10
2022-09-11T01:25:10.877Z,15.10
2022-09-11T01:28:01.336Z,15.10
2022-09-11T01:30:56.527Z,15.10
2022-09-11T01:33:48.998Z,15.10
2022-09-11T01:36:42.058Z,15.10
2022-09-11T01:39:35.179Z,15.10
2022-09-11T01:42:26.331Z,15.10
2022-09-11T01:45:17.238Z,15.10
2022-09-11T01:48:04.703Z,15.00
2022-09-11T01:50:54.293Z,15.00
2022-09-11T01:53:50.163Z,15.00
2022-09-11T01:56:42.071Z,15.00
2022-09-11T01:59:37.592Z,15.00
2022-09-11T02:02:30.874Z,15.00
2022-09-11T02:05:23.359Z,15.00
2022-09-11T02:08:16.656Z,15.00
2022-09-11T02:11:09.241Z,15.00
2022-09-11T02:14:04.047Z,15.00
2022-09-11T02:17:01.654Z,15.00
2022-09-11T02:19:50.693Z,15.00
2022-09-11T02:22:37.925Z,15.00
2022-09-11T02:25:25.076Z,15.00
2022-09-11T02:28:16.151Z,15.10
2022-09-11T02:31:03.849Z,15.10
2022-09-11T02:33:51.540Z,15.10
2022-09-11T02:36:56.564Z,15.10
2022-09-11T02:40:08.138Z,15.10
2022-09-11T02:43:13.610Z,15.10
2022-09-11T02:46:23.823Z,15.10
2022-09-11T02:49:26.580Z,15.10
2022-09-11T02:52:27.683Z,15.10
2022-09-11T02:55:23.395Z,15.10
2022-09-11T02:58:17.758Z,15.10
2022-09-11T03:01:06.167Z,15.10
2022-09-11T03:03:53.115Z,15.10
2022-09-11T03:06:43.336Z,15.10
2022-09-11T03:09:33.795Z,15.10
2022-09-11T03:12:27.229Z,15.10
2022-09-11T03:15:14.328Z,15.10
2022-09-11T03:18:03.327Z,15.10
2022-09-11T03:20:50.224Z,15.10
2022-09-11T03:23:37.082Z,15.10
2022-09-11T03:26:29.608Z,15.10
2022-09-11T03:29:17.943Z,15.10
2022-09-11T03:32:05.273Z,15.10
2022-09-11T03:34:53.682Z,15.00
2022-09-11T03:37:40.623Z,15.00
2022-09-11T03:40:27.764Z,15.00
2022-09-11T03:43:16.964Z,15.00
2022-09-11T03:46:04.343Z,15.00
2022-09-11T03:48:52.615Z,15.00
2022-09-11T03:51:41.746Z,15.00
2022-09-11T03:54:28.936Z,15.00
2022-09-11T03:57:16.217Z,15.00
2022-09-11T04:00:06.878Z,14.90
2022-09-11T04:03:07.654Z,14.90
2022-09-11T04:06:03.668Z,14.90
2022-09-11T04:08:52.885Z,14.90
2022-09-11T04:11:40.374Z,14.90
2022-09-11T04:14:36.190Z,14.90
2022-09-11T04:17:25.904Z,14.90
2022-09-11T04:20:14.058Z,14.90
2022-09-11T04:23:03.062Z,14.90
2022-09-11T04:25:51.169Z,14.90
2022-09-11T04:28:38.143Z,14.90
2022-09-11T04:31:26.744Z,14.90
2022-09-11T04:34:15.225Z,14.90
2022-09-11T04:37:03.333Z,14.90
2022-09-11T04:39:52.143Z,14.90
2022-09-11T04:42:38.815Z,14.90
2022-09-11T04:45:25.698Z,14.90
2022-09-11T04:48:14.286Z,14.90
2022-09-11T04:51:06.835Z,15.00
2022-09-11T04:53:57.734Z,15.00
2022-09-11T04:56:50.964Z,14.90
2022-09-11T04:59:39.009Z,15.00
2022-09-11T05:02:29.435Z,15.00
2022-09-11T05:05:16.447Z,15.00
2022-09-11T05:08:06.021Z,15.00
2022-09-11T05:10:53.171Z,15.00
2022-09-11T05:13:42.266Z,15.00
2022-09-11T05:16:30.575Z,15.00
2022-09-11T05:19:19.350Z,15.00
2022-09-11T05:22:07.052Z,15.00
2022-09-11T05:24:58.484Z,15.00
2022-09-11T05:27:46.052Z,15.00
2022-09-11T05:30:33.062Z,15.00
2022-09-11T05:33:20.253Z,15.00
2022-09-11T05:36:08.343Z,15.00
2022-09-11T05:38:55.663Z,15.10
2022-09-11T05:41:44.414Z,15.00
2022-09-11T05:44:32.968Z,15.10
2022-09-11T05:47:20.714Z,15.10
2022-09-11T05:50:10.488Z,15.10
2022-09-11T05:52:57.828Z,15.10
2022-09-11T05:55:44.660Z,15.10
2022-09-11T05:58:34.331Z,15.10
2022-09-11T06:01:23.994Z,15.20
2022-09-11T06:04:19.820Z,15.20
2022-09-11T06:07:08.977Z,15.20
2022-09-11T06:10:02.353Z,15.20
2022-09-11T06:12:54.014Z,15.20
2022-09-11T06:15:47.293Z,15.20
2022-09-11T06:18:34.922Z,15.20
2022-09-11T06:21:24.736Z,15.10
2022-09-11T06:24:20.536Z,15.20
2022-09-11T06:27:07.673Z,15.20
2022-09-11T06:30:00.118Z,15.30
2022-09-11T06:32:51.905Z,15.30
2022-09-11T06:35:41.121Z,15.40
2022-09-11T06:38:29.995Z,15.40
2022-09-11T06:41:19.318Z,15.40
2022-09-11T06:44:07.312Z,15.40
2022-09-11T06:46:54.529Z,15.50
2022-09-11T06:49:42.777Z,15.50
2022-09-11T06:52:45.878Z,15.50
2022-09-11T06:55:43.290Z,15.50
2022-09-11T06:58:35.278Z,15.60
2022-09-11T07:01:24.480Z,15.60
2022-09-11T07:04:19.582Z,15.60
2022-09-11T07:07:10.621Z,15.60
2022-09-11T07:10:01.256Z,15.70
2022-09-11T07:12:49.426Z,15.80
2022-09-11T07:15:36.828Z,15.80
2022-09-11T07:18:39.285Z,15.80
2022-09-11T07:21:30.694Z,15.80
2022-09-11T07:24:22.935Z,15.80
2022-09-11T07:27:13.967Z,15.90
2022-09-11T07:30:03.505Z,15.90
2022-09-11T07:32:54.276Z,16.00
2022-09-11T07:35:41.350Z,16.00
2022-09-11T07:38:32.091Z,16.00
2022-09-11T07:41:24.369Z,16.00
2022-09-11T07:44:16.651Z,16.10
2022-09-11T07:47:04.228Z,16.10
2022-09-11T07:49:56.143Z,16.10
2022-09-11T07:52:44.694Z,16.10
2022-09-11T07:55:35.182Z,16.10
2022-09-11T07:58:24.686Z,16.20
2022-09-11T08:01:14.811Z,16.20
2022-09-11T08:04:04.392Z,16.30
2022-09-11T08:06:51.642Z,16.30
2022-09-11T08:09:46.601Z,16.40
2022-09-11T08:12:34.813Z,16.40
2022-09-11T08:15:23.485Z,16.50
2022-09-11T08:18:10.457Z,16.60
2022-09-11T08:21:04.769Z,16.60
2022-09-11T08:23:52.119Z,16.60
2022-09-11T08:26:39.732Z,16.60
2022-09-11T08:29:26.671Z,16.70
2022-09-11T08:32:16.201Z,16.70
2022-09-11T08:35:04.119Z,16.80
2022-09-11T08:37:54.888Z,16.80
2022-09-11T08:40:43.178Z,16.80
2022-09-11T08:43:35.287Z,16.80
2022-09-11T08:46:25.210Z,16.80
2022-09-11T08:49:20.917Z,16.80
2022-09-11T08:52:12.464Z,16.80
2022-09-11T08:55:00.592Z,16.90
2022-09-11T08:57:55.280Z,17.00
2022-09-11T09:00:56.389Z,17.00
2022-09-11T09:04:00.065Z,17.10
2022-09-11T09:07:04.489Z,17.20
2022-09-11T09:10:02.528Z,17.20
2022-09-11T09:12:59.482Z,17.20
2022-09-11T09:15:54.806Z,17.20
2022-09-11T09:18:47.637Z,17.30
2022-09-11T09:21:42.353Z,17.30
2022-09-11T09:24:37.649Z,17.40
2022-09-11T09:27:31.171Z,17.50
2022-09-11T09:30:22.021Z,17.50
2022-09-11T09:33:27.653Z,17.50
2022-09-11T09:36:17.713Z,17.60
2022-09-11T09:39:12.266Z,17.60
2022-09-11T09:42:24.745Z,17.60
2022-09-11T09:45:21.563Z,17.70
2022-09-11T09:48:11.968Z,17.70
2022-09-11T09:50:59.135Z,17.70
2022-09-11T09:54:00.503Z,17.70
2022-09-11T09:56:57.010Z,17.80
2022-09-11T09:59:50.972Z,17.80
2022-09-11T10:02:40.807Z,17.80
2022-09-11T10:05:29.512Z,17.80
2022-09-11T10:08:31.386Z,17.80
2022-09-11T10:11:29.852Z,17.80
2022-09-11T10:14:49.320Z,17.80
2022-09-11T10:17:35.288Z,17.80
2022-09-11T10:20:26.962Z,17.80
2022-09-11T10:23:25.718Z,17.80
2022-09-11T10:26:17.825Z,17.80
2022-09-11T10:29:14.138Z,17.70
2022-09-11T10:32:03.621Z,17.70
2022-09-11T10:34:51.455Z,17.70
2022-09-11T10:37:39.258Z,17.70
2022-09-11T10:40:26.280Z,17.70
2022-09-11T10:43:24.772Z,17.70
2022-09-11T10:46:40.096Z,17.70
2022-09-11T10:49:27.351Z,17.60
2022-09-11T10:52:20.052Z,17.60
2022-09-11T10:55:15.960Z,17.70
2022-09-11T10:58:10.218Z,17.80
2022-09-11T11:00:58.512Z,17.90
2022-09-11T11:03:47.572Z,18.00
2022-09-11T11:06:51.082Z,18.10
2022-09-11T11:09:50.647Z,18.30
2022-09-11T11:12:50.387Z,18.40
2022-09-11T11:15:52.349Z,18.50
2022-09-11T11:18:54.907Z,18.50
2022-09-11T11:21:54.717Z,18.50
2022-09-11T11:24:53.987Z,18.50
2022-09-11T11:27:58.319Z,18.50
2022-09-11T11:30:56.968Z,18.60
2022-09-11T11:34:01.518Z,18.60
2022-09-11T11:36:53.388Z,18.70
2022-09-11T11:39:53.490Z,18.70
2022-09-11T11:42:47.000Z,18.70
2022-09-11T11:45:38.306Z,18.70
2022-09-11T11:48:31.846Z,18.60
2022-09-11T11:51:25.016Z,18.50
2022-09-11T11:54:19.500Z,18.50
2022-09-11T11:57:12.975Z,18.50
2022-09-11T12:00:08.905Z,18.50
2022-09-11T12:03:07.865Z,18.50
2022-09-11T12:05:55.377Z,18.50
2022-09-11T12:08:47.026Z,18.50
2022-09-11T12:11:34.943Z,18.50
2022-09-11T12:14:28.668Z,18.60
2022-09-11T12:17:24.362Z,18.60
2022-09-11T12:20:29.930Z,18.70
2022-09-11T12:23:35.991Z,18.80
2022-09-11T12:26:22.880Z,18.90
2022-09-11T12:29:41.083Z,19.00
2022-09-11T12:32:43.093Z,19.20
2022-09-11T12:35:41.644Z,19.40
2022-09-11T12:38:35.665Z,19.60
2022-09-11T12:41:28.195Z,19.70
2022-09-11T12:44:32.206Z,19.80
2022-09-11T12:47:21.796Z,19.70
2022-09-11T12:50:19.234Z,19.60
2022-09-11T12:53:16.727Z,19.60
2022-09-11T12:56:06.610Z,19.60
2022-09-11T12:58:56.013Z,19.60
2022-09-11T13:01:45.655Z,19.70
2022-09-11T13:04:35.015Z,19.70
2022-09-11T13:07:31.475Z,19.80
2022-09-11T13:10:33.542Z,19.90
2022-09-11T13:13:41.736Z,20.00
2022-09-11T13:16:28.693Z,20.00
2022-09-11T13:19:18.056Z,20.10
2022-09-11T13:22:23.586Z,20.20
2022-09-11T13:25:14.838Z,20.30
2022-09-11T13:28:03.549Z,20.30
2022-09-11T13:30:58.262Z,20.30
2022-09-11T13:33:50.214Z,20.40
2022-09-11T13:36:38.502Z,20.40
2022-09-11T13:39:27.914Z,20.40
2022-09-11T13:42:17.961Z,20.50
2022-09-11T13:45:06.870Z,20.60
2022-09-11T13:47:54.904Z,20.70
2022-09-11T13:50:41.933Z,20.70
2022-09-11T13:53:29.251Z,20.70
2022-09-11T13:56:36.432Z,20.70
2022-09-11T13:59:36.426Z,20.70
2022-09-11T14:02:41.820Z,20.70
2022-09-11T14:05:32.099Z,20.80
2022-09-11T14:08:25.176Z,20.60
2022-09-11T14:11:15.458Z,20.70
2022-09-11T14:14:08.666Z,20.50
2022-09-11T14:17:01.427Z,20.60
2022-09-11T14:19:52.560Z,20.70
2022-09-11T14:22:39.691Z,20.70
2022-09-11T14:25:26.685Z,20.70
2022-09-11T14:28:35.785Z,20.70
2022-09-11T14:31:38.787Z,20.70
2022-09-11T14:34:28.074Z,20.60
2022-09-11T14:37:19.222Z,20.60
2022-09-11T14:40:10.599Z,20.60
2022-09-11T14:42:57.604Z,20.60
2022-09-11T14:45:44.575Z,20.60
2022-09-11T14:48:33.226Z,20.70
2022-09-11T14:51:20.834Z,20.70
2022-09-11T14:54:15.538Z,20.70
2022-09-11T14:57:03.738Z,20.70
2022-09-11T14:59:51.601Z,20.70
2022-09-11T15:02:39.284Z,20.80
2022-09-11T15:05:27.138Z,20.80
2022-09-11T15:08:14.293Z,20.80
2022-09-11T15:11:02.555Z,20.90
2022-09-11T15:14:13.444Z,20.90
2022-09-11T15:16:59.615Z,20.90
2022-09-11T15:19:47.445Z,21.00
2022-09-11T15:22:35.480Z,20.90
2022-09-11T15:25:23.226Z,20.90
2022-09-11T15:28:11.538Z,20.90
2022-09-11T15:31:01.407Z,20.90
2022-09-11T15:33:51.983Z,20.80
2022-09-11T15:36:41.662Z,20.70
2022-09-11T15:39:29.121Z,20.70
2022-09-11T15:42:15.852Z,20.80
2022-09-11T15:45:04.533Z,20.80
2022-09-11T15:47:51.449Z,20.70
2022-09-11T15:50:38.677Z,20.70
2022-09-11T15:53:25.855Z,20.70
2022-09-11T15:56:18.693Z,20.70
2022-09-11T15:59:07.076Z,20.70
2022-09-11T16:01:55.811Z,20.60
2022-09-11T16:04:42.705Z,20.60
2022-09-11T16:07:29.808Z,20.50
2022-09-11T16:10:16.910Z,20.50
2022-09-11T16:13:04.909Z,20.40
2022-09-11T16:16:04.256Z,20.40
2022-09-11T16:18:53.518Z,20.40
2022-09-11T16:21:41.039Z,20.40
2022-09-11T16:24:29.669Z,20.40
2022-09-11T16:27:16.522Z,20.40
2022-09-11T16:33:12.076Z,20.30
2022-09-11T16:36:03.209Z,20.30
2022-09-11T16:38:52.535Z,20.20
2022-09-11T16:41:40.315Z,20.20
2022-09-11T16:44:28.525Z,20.20
2022-09-11T16:47:16.670Z,20.10
2022-09-11T16:50:08.158Z,20.10
2022-09-11T16:52:56.835Z,20.00
2022-09-11T16:55:44.109Z,20.00
2022-09-11T16:58:31.253Z,19.90
2022-09-11T17:01:20.163Z,19.80
2022-09-11T17:04:07.431Z,19.80
2022-09-11T17:06:54.451Z,19.80
2022-09-11T17:09:43.613Z,19.80
2022-09-11T17:12:30.682Z,19.70
2022-09-11T17:15:19.594Z,19.80
2022-09-11T17:18:06.688Z,19.70
2022-09-11T17:20:59.073Z,19.70
2022-09-11T17:23:46.698Z,19.70
2022-09-11T17:26:36.261Z,19.60
2022-09-11T17:29:23.457Z,19.60
2022-09-11T17:32:27.159Z,19.50
2022-09-11T17:35:16.133Z,19.50
2022-09-11T17:38:03.907Z,19.40
2022-09-11T17:40:51.152Z,19.40
2022-09-11T17:43:40.722Z,19.30
2022-09-11T17:46:28.421Z,19.30
2022-09-11T17:49:15.554Z,19.20
2022-09-11T17:52:02.677Z,19.10
2022-09-11T17:54:50.226Z,19.10
2022-09-11T17:57:37.264Z,19.00
2022-09-11T18:00:25.871Z,19.00
2022-09-11T18:03:13.437Z,18.90
2022-09-11T18:06:01.734Z,18.90
2022-09-11T18:08:48.656Z,18.80
2022-09-11T18:11:35.510Z,18.80
2022-09-11T18:14:23.519Z,18.70
2022-09-11T18:17:12.167Z,18.70
2022-09-11T18:19:59.221Z,18.60
2022-09-11T18:22:46.497Z,18.60
2022-09-11T18:25:39.703Z,18.50
2022-09-11T18:28:29.736Z,18.50
2022-09-11T18:31:17.367Z,18.40
2022-09-11T18:34:06.621Z,18.30
2022-09-11T18:36:54.185Z,18.30
2022-09-11T18:39:41.033Z,18.20
2022-09-11T18:42:27.985Z,18.20
2022-09-11T18:45:14.897Z,18.10
2022-09-11T18:48:02.114Z,18.00
2022-09-11T18:50:51.355Z,18.00
2022-09-11T18:53:39.476Z,17.90
2022-09-11T18:56:29.360Z,17.90
2022-09-11T18:59:18.271Z,17.80
2022-09-11T19:02:05.618Z,17.70
2022-09-11T19:04:52.774Z,17.70
2022-09-11T19:07:41.402Z,17.60
2022-09-11T19:10:28.843Z,17.60
2022-09-11T19:13:15.683Z,17.50
2022-09-11T19:16:04.180Z,17.50
2022-09-11T19:18:50.955Z,17.40
2022-09-11T19:21:39.936Z,17.40
2022-09-11T19:24:30.356Z,17.30
2022-09-11T19:27:17.567Z,17.30
2022-09-11T19:30:07.007Z,17.20
2022-09-11T19:32:54.188Z,17.20
2022-09-11T19:35:41.520Z,17.10
2022-09-11T19:38:28.609Z,17.00
2022-09-11T19:41:19.271Z,17.00
2022-09-11T19:44:07.988Z,16.90
2022-09-11T19:46:56.410Z,16.90
2022-09-11T19:49:43.190Z,16.80
2022-09-11T19:52:32.979Z,16.70
2022-09-11T19:55:20.175Z,16.70
2022-09-11T19:58:09.854Z,16.60
2022-09-11T20:00:57.311Z,16.60
2022-09-11T20:03:45.875Z,16.50
2022-09-11T20:06:34.825Z,16.50
2022-09-11T20:09:37.269Z,16.40
2022-09-11T20:12:24.410Z,16.40
2022-09-11T20:15:13.368Z,16.30
2022-09-11T20:18:00.484Z,16.30
2022-09-11T20:20:48.921Z,16.20
2022-09-11T20:23:37.041Z,16.10
2022-09-11T20:26:26.142Z,16.10
2022-09-11T20:29:16.089Z,16.10
2022-09-11T20:32:04.630Z,16.00
2022-09-11T20:34:51.796Z,16.00
2022-09-11T20:37:39.061Z,15.90
2022-09-11T20:40:26.290Z,15.80
2022-09-11T20:43:13.314Z,15.80
2022-09-11T20:46:00.659Z,15.70
2022-09-11T20:48:51.325Z,15.70
2022-09-11T20:51:38.467Z,15.70
2022-09-11T20:54:25.317Z,15.60
2022-09-11T20:57:12.516Z,15.50
2022-09-11T21:00:00.556Z,15.50
2022-09-11T21:02:47.625Z,15.50
2022-09-11T21:05:36.706Z,15.40
2022-09-11T21:08:25.758Z,15.40
2022-09-11T21:11:13.483Z,15.40
2022-09-11T21:14:01.215Z,15.30
2022-09-11T21:16:48.598Z,15.20
2022-09-11T21:19:36.067Z,15.20
2022-09-11T21:22:24.791Z,15.20
2022-09-11T21:25:12.005Z,15.10
2022-09-11T21:27:59.210Z,15.10
2022-09-11T21:30:46.413Z,15.10
2022-09-11T21:33:34.729Z,15.10
2022-09-11T21:36:22.025Z,15.00
2022-09-11T21:39:10.463Z,15.00
2022-09-11T21:41:57.485Z,15.00
2022-09-11T21:44:44.846Z,14.90
2022-09-11T21:47:31.963Z,14.80
2022-09-11T21:50:19.091Z,14.80
2022-09-11T21:53:07.290Z,14.80
2022-09-11T21:55:55.467Z,14.70
2022-09-11T21:58:42.847Z,14.70
2022-09-11T22:01:31.967Z,14.60
2022-09-11T22:04:19.330Z,14.60
2022-09-11T22:07:06.627Z,14.50
2022-09-11T22:09:53.602Z,14.50
2022-09-11T22:12:41.899Z,14.50
2022-09-11T22:15:28.900Z,14.50
2022-09-11T22:18:16.842Z,14.40
2022-09-11T22:21:05.078Z,14.40
2022-09-11T22:23:52.573Z,14.40
2022-09-11T22:26:39.753Z,14.30
2022-09-11T22:29:28.217Z,14.30
2022-09-11T22:32:15.315Z,14.30
2022-09-11T22:35:02.377Z,14.20
2022-09-11T22:37:49.474Z,14.20
2022-09-11T22:40:36.950Z,14.10
2022-09-11T22:43:24.235Z,14.10
2022-09-11T22:46:12.900Z,14.10
2022-09-11T22:48:59.674Z,14.10
2022-09-11T22:51:46.557Z,14.00
2022-09-11T22:54:33.346Z,14.00
2022-09-11T22:57:20.461Z,14.00
2022-09-11T23:00:10.127Z,14.00
2022-09-11T23:02:58.431Z,14.00
2022-09-11T23:05:59.419Z,13.90
2022-09-11T23:08:46.433Z,13.90
2022-09-11T23:11:32.792Z,13.90
2022-09-11T23:14:18.350Z,13.80
2022-09-11T23:17:05.994Z,13.80
2022-09-11T23:19:54.492Z,13.80
2022-09-11T23:22:41.261Z,13.80
2022-09-11T23:25:28.262Z,13.70
2022-09-11T23:28:15.332Z,13.70
2022-09-11T23:31:03.757Z,13.70
2022-09-11T23:33:50.496Z,13.60
2022-09-11T23:36:38.895Z,13.60
2022-09-11T23:39:26.989Z,13.60
2022-09-11T23:42:13.785Z,13.60
2022-09-11T23:45:00.628Z,13.50
2022-09-11T23:47:47.561Z,13.50
2022-09-11T23:50:34.509Z,13.50
2022-09-11T23:53:23.247Z,13.50
2022-09-11T23:56:11.710Z,13.40
2022-09-11T23:58:59.048Z,13.40
